sensor_id;sensor_type;location;lat;lon;timestamp;temperature;humidity
19928;DHT22;10126;50.876;4.470;2023-07-16T00:01:56;16.80;99.90
19928;DHT22;10126;50.876;4.470;2023-07-16T00:03:57;16.80;99.90
19928;DHT22;10126;50.876;4.470;2023-07-16T00:05:57;16.80;99.90
19928;DHT22;10126;50.876;4.470;2023-07-16T00:07:58;16.70;99.90
19928;DHT22;10126;50.876;4.470;2023-07-16T00:09:59;16.80;99.90
19928;DHT22;10126;50.876;4.470;2023-07-16T00:11:59;16.70;99.90
19928;DHT22;10126;50.876;4.470;2023-07-16T00:14:00;16.70;99.90
19928;DHT22;10126;50.876;4.470;2023-07-16T00:16:02;16.80;99.90
19928;DHT22;10126;50.876;4.470;2023-07-16T00:18:02;16.80;99.90
19928;DHT22;10126;50.876;4.470;2023-07-16T00:20:04;17.00;99.90
19928;DHT22;10126;50.876;4.470;2023-07-16T00:22:06;16.90;99.90
19928;DHT22;10126;50.876;4.470;2023-07-16T00:24:07;16.80;99.90
19928;DHT22;10126;50.876;4.470;2023-07-16T00:26:08;16.80;99.90
19928;DHT22;10126;50.876;4.470;2023-07-16T00:28:09;16.70;99.90
19928;DHT22;10126;50.876;4.470;2023-07-16T00:30:12;16.80;99.90
19928;DHT22;10126;50.876;4.470;2023-07-16T00:32:13;16.80;99.90
19928;DHT22;10126;50.876;4.470;2023-07-16T00:34:13;16.90;99.90
19928;DHT22;10126;50.876;4.470;2023-07-16T00:36:14;16.80;99.90
19928;DHT22;10126;50.876;4.470;2023-07-16T00:38:16;16.80;99.90
19928;DHT22;10126;50.876;4.470;2023-07-16T00:40:17;16.70;99.90
19928;DHT22;10126;50.876;4.470;2023-07-16T00:42:18;16.70;99.90
19928;DHT22;10126;50.876;4.470;2023-07-16T00:44:18;16.70;99.90
19928;DHT22;10126;50.876;4.470;2023-07-16T00:46:19;16.70;99.90
19928;DHT22;10126;50.876;4.470;2023-07-16T00:48:20;16.70;99.90
19928;DHT22;10126;50.876;4.470;2023-07-16T00:50:20;16.60;99.90
19928;DHT22;10126;50.876;4.470;2023-07-16T00:52:22;16.50;99.90
19928;DHT22;10126;50.876;4.470;2023-07-16T00:54:23;16.40;99.90
19928;DHT22;10126;50.876;4.470;2023-07-16T00:56:24;16.60;99.90
19928;DHT22;10126;50.876;4.470;2023-07-16T00:58:25;16.60;99.90
19928;DHT22;10126;50.876;4.470;2023-07-16T01:00:26;16.50;99.90
19928;DHT22;10126;50.876;4.470;2023-07-16T01:02:26;16.50;99.90
19928;DHT22;10126;50.876;4.470;2023-07-16T01:04:27;16.50;99.90
19928;DHT22;10126;50.876;4.470;2023-07-16T01:08:52;16.30;99.90
19928;DHT22;10126;50.876;4.470;2023-07-16T01:10:54;16.30;99.90
19928;DHT22;10126;50.876;4.470;2023-07-16T01:12:56;16.30;99.90
19928;DHT22;10126;50.876;4.470;2023-07-16T01:14:57;16.20;99.90
19928;DHT22;10126;50.876;4.470;2023-07-16T01:17:01;16.20;99.90
19928;DHT22;10126;50.876;4.470;2023-07-16T01:19:03;16.30;99.90
19928;DHT22;10126;50.876;4.470;2023-07-16T01:21:03;16.30;99.90
19928;DHT22;10126;50.876;4.470;2023-07-16T01:30:23;16.10;99.90
19928;DHT22;10126;50.876;4.470;2023-07-16T01:32:29;16.10;99.90
19928;DHT22;10126;50.876;4.470;2023-07-16T01:34:32;16.20;99.90
19928;DHT22;10126;50.876;4.470;2023-07-16T01:36:34;16.20;99.90
19928;DHT22;10126;50.876;4.470;2023-07-16T01:38:36;16.40;99.90
19928;DHT22;10126;50.876;4.470;2023-07-16T01:40:36;16.30;99.90
19928;DHT22;10126;50.876;4.470;2023-07-16T01:42:37;16.20;99.90
19928;DHT22;10126;50.876;4.470;2023-07-16T01:44:38;16.20;99.90
19928;DHT22;10126;50.876;4.470;2023-07-16T01:46:39;16.30;99.90
19928;DHT22;10126;50.876;4.470;2023-07-16T01:48:39;16.30;99.90
19928;DHT22;10126;50.876;4.470;2023-07-16T01:50:41;16.10;99.90
19928;DHT22;10126;50.876;4.470;2023-07-16T01:52:41;16.10;99.90
19928;DHT22;10126;50.876;4.470;2023-07-16T01:54:42;15.90;99.90
19928;DHT22;10126;50.876;4.470;2023-07-16T01:56:42;15.80;99.90
19928;DHT22;10126;50.876;4.470;2023-07-16T01:58:43;15.70;99.90
19928;DHT22;10126;50.876;4.470;2023-07-16T02:00:44;15.60;99.90
19928;DHT22;10126;50.876;4.470;2023-07-16T02:02:44;15.60;99.90
19928;DHT22;10126;50.876;4.470;2023-07-16T02:04:45;15.50;99.90
19928;DHT22;10126;50.876;4.470;2023-07-16T02:06:46;15.60;99.90
19928;DHT22;10126;50.876;4.470;2023-07-16T02:08:48;15.50;99.90
19928;DHT22;10126;50.876;4.470;2023-07-16T02:10:49;15.50;99.90
19928;DHT22;10126;50.876;4.470;2023-07-16T02:12:49;15.40;99.90
19928;DHT22;10126;50.876;4.470;2023-07-16T02:14:50;15.50;99.90
19928;DHT22;10126;50.876;4.470;2023-07-16T02:16:50;15.50;99.90
19928;DHT22;10126;50.876;4.470;2023-07-16T02:18:51;15.60;99.90
19928;DHT22;10126;50.876;4.470;2023-07-16T02:20:52;15.60;99.90
19928;DHT22;10126;50.876;4.470;2023-07-16T02:22:52;15.50;99.90
19928;DHT22;10126;50.876;4.470;2023-07-16T02:24:53;15.50;99.90
19928;DHT22;10126;50.876;4.470;2023-07-16T02:26:53;15.50;99.90
19928;DHT22;10126;50.876;4.470;2023-07-16T02:28:54;15.60;99.90
19928;DHT22;10126;50.876;4.470;2023-07-16T02:30:55;15.60;99.90
19928;DHT22;10126;50.876;4.470;2023-07-16T02:32:55;15.60;99.90
19928;DHT22;10126;50.876;4.470;2023-07-16T02:34:56;15.70;99.90
19928;DHT22;10126;50.876;4.470;2023-07-16T02:36:57;15.70;99.90
19928;DHT22;10126;50.876;4.470;2023-07-16T02:38:57;15.70;99.90
19928;DHT22;10126;50.876;4.470;2023-07-16T02:40:58;15.70;99.90
19928;DHT22;10126;50.876;4.470;2023-07-16T02:42:58;15.70;99.90
19928;DHT22;10126;50.876;4.470;2023-07-16T02:44:59;15.70;99.90
19928;DHT22;10126;50.876;4.470;2023-07-16T02:47:00;15.60;99.90
19928;DHT22;10126;50.876;4.470;2023-07-16T02:49:02;15.70;99.90
19928;DHT22;10126;50.876;4.470;2023-07-16T02:51:03;15.60;99.90
19928;DHT22;10126;50.876;4.470;2023-07-16T02:53:04;15.70;99.90
19928;DHT22;10126;50.876;4.470;2023-07-16T02:55:05;15.60;99.90
19928;DHT22;10126;50.876;4.470;2023-07-16T02:57:06;15.60;99.90
19928;DHT22;10126;50.876;4.470;2023-07-16T02:59:07;15.50;99.90
19928;DHT22;10126;50.876;4.470;2023-07-16T03:01:07;15.50;99.90
19928;DHT22;10126;50.876;4.470;2023-07-16T03:03:14;15.50;99.90
19928;DHT22;10126;50.876;4.470;2023-07-16T03:05:15;15.30;99.90
19928;DHT22;10126;50.876;4.470;2023-07-16T03:07:16;15.40;99.90
19928;DHT22;10126;50.876;4.470;2023-07-16T03:09:17;15.40;99.90
19928;DHT22;10126;50.876;4.470;2023-07-16T03:11:17;15.40;99.90
19928;DHT22;10126;50.876;4.470;2023-07-16T03:13:18;15.40;99.90
19928;DHT22;10126;50.876;4.470;2023-07-16T03:15:20;15.40;99.90
19928;DHT22;10126;50.876;4.470;2023-07-16T03:17:21;15.40;99.90
19928;DHT22;10126;50.876;4.470;2023-07-16T03:19:22;15.40;99.90
19928;DHT22;10126;50.876;4.470;2023-07-16T03:21:23;15.30;99.90
19928;DHT22;10126;50.876;4.470;2023-07-16T03:23:24;15.40;99.90
19928;DHT22;10126;50.876;4.470;2023-07-16T03:25:24;15.50;99.90
19928;DHT22;10126;50.876;4.470;2023-07-16T03:27:28;15.50;99.90
19928;DHT22;10126;50.876;4.470;2023-07-16T03:29:29;15.60;99.90
19928;DHT22;10126;50.876;4.470;2023-07-16T03:31:29;15.70;99.90
19928;DHT22;10126;50.876;4.470;2023-07-16T03:33:32;15.60;99.90
19928;DHT22;10126;50.876;4.470;2023-07-16T03:35:33;15.60;99.90
19928;DHT22;10126;50.876;4.470;2023-07-16T03:37:34;15.60;99.90
19928;DHT22;10126;50.876;4.470;2023-07-16T03:39:34;15.60;99.90
19928;DHT22;10126;50.876;4.470;2023-07-16T03:41:35;15.60;99.90
19928;DHT22;10126;50.876;4.470;2023-07-16T03:43:35;15.50;99.90
19928;DHT22;10126;50.876;4.470;2023-07-16T03:45:36;15.50;99.90
19928;DHT22;10126;50.876;4.470;2023-07-16T03:47:37;15.50;99.90
19928;DHT22;10126;50.876;4.470;2023-07-16T03:49:37;15.50;99.90
19928;DHT22;10126;50.876;4.470;2023-07-16T03:51:38;15.50;99.90
19928;DHT22;10126;50.876;4.470;2023-07-16T03:53:39;15.50;99.90
19928;DHT22;10126;50.876;4.470;2023-07-16T03:55:39;15.60;99.90
19928;DHT22;10126;50.876;4.470;2023-07-16T03:57:40;15.50;99.90
19928;DHT22;10126;50.876;4.470;2023-07-16T03:59:42;15.60;99.90
19928;DHT22;10126;50.876;4.470;2023-07-16T04:01:42;15.50;99.90
19928;DHT22;10126;50.876;4.470;2023-07-16T04:03:46;15.60;99.90
19928;DHT22;10126;50.876;4.470;2023-07-16T04:05:46;15.80;99.90
19928;DHT22;10126;50.876;4.470;2023-07-16T04:07:47;15.80;99.90
19928;DHT22;10126;50.876;4.470;2023-07-16T04:09:48;15.70;99.90
19928;DHT22;10126;50.876;4.470;2023-07-16T04:11:48;15.80;99.90
19928;DHT22;10126;50.876;4.470;2023-07-16T04:13:52;15.70;99.90
19928;DHT22;10126;50.876;4.470;2023-07-16T04:15:53;15.80;99.90
19928;DHT22;10126;50.876;4.470;2023-07-16T04:17:57;15.80;99.90
19928;DHT22;10126;50.876;4.470;2023-07-16T04:19:58;15.90;99.90
19928;DHT22;10126;50.876;4.470;2023-07-16T04:21:58;15.90;99.90
19928;DHT22;10126;50.876;4.470;2023-07-16T04:23:59;15.90;99.90
19928;DHT22;10126;50.876;4.470;2023-07-16T04:25:59;15.90;99.90
19928;DHT22;10126;50.876;4.470;2023-07-16T04:28:00;16.00;99.90
19928;DHT22;10126;50.876;4.470;2023-07-16T04:30:04;16.10;99.90
19928;DHT22;10126;50.876;4.470;2023-07-16T04:32:05;16.10;99.90
19928;DHT22;10126;50.876;4.470;2023-07-16T04:34:08;16.10;99.90
19928;DHT22;10126;50.876;4.470;2023-07-16T04:36:09;16.10;99.90
19928;DHT22;10126;50.876;4.470;2023-07-16T04:38:12;16.10;99.90
19928;DHT22;10126;50.876;4.470;2023-07-16T04:40:13;16.20;99.90
19928;DHT22;10126;50.876;4.470;2023-07-16T04:42:14;16.10;99.90
19928;DHT22;10126;50.876;4.470;2023-07-16T04:44:17;16.30;99.90
19928;DHT22;10126;50.876;4.470;2023-07-16T04:46:17;16.50;99.90
19928;DHT22;10126;50.876;4.470;2023-07-16T04:48:18;16.90;99.90
19928;DHT22;10126;50.876;4.470;2023-07-16T04:50:18;17.50;99.90
19928;DHT22;10126;50.876;4.470;2023-07-16T04:52:19;18.20;99.90
19928;DHT22;10126;50.876;4.470;2023-07-16T04:54:20;18.70;99.90
19928;DHT22;10126;50.876;4.470;2023-07-16T04:56:20;19.40;99.90
19928;DHT22;10126;50.876;4.470;2023-07-16T04:58:21;19.80;99.90
19928;DHT22;10126;50.876;4.470;2023-07-16T05:00:22;20.00;99.90
19928;DHT22;10126;50.876;4.470;2023-07-16T05:02:22;20.60;99.90
19928;DHT22;10126;50.876;4.470;2023-07-16T05:04:23;21.10;99.90
19928;DHT22;10126;50.876;4.470;2023-07-16T05:06:24;21.10;99.90
19928;DHT22;10126;50.876;4.470;2023-07-16T05:08:24;21.10;99.90
19928;DHT22;10126;50.876;4.470;2023-07-16T05:10:25;21.00;99.90
19928;DHT22;10126;50.876;4.470;2023-07-16T05:12:26;21.10;99.90
19928;DHT22;10126;50.876;4.470;2023-07-16T05:14:27;21.60;99.90
19928;DHT22;10126;50.876;4.470;2023-07-16T05:16:28;21.70;99.90
19928;DHT22;10126;50.876;4.470;2023-07-16T05:18:29;22.50;99.90
19928;DHT22;10126;50.876;4.470;2023-07-16T05:20:30;23.30;99.90
19928;DHT22;10126;50.876;4.470;2023-07-16T05:22:31;23.40;99.90
19928;DHT22;10126;50.876;4.470;2023-07-16T05:24:32;24.00;99.90
19928;DHT22;10126;50.876;4.470;2023-07-16T05:26:33;24.10;99.90
19928;DHT22;10126;50.876;4.470;2023-07-16T05:28:34;24.80;99.90
19928;DHT22;10126;50.876;4.470;2023-07-16T05:30:36;24.50;99.90
19928;DHT22;10126;50.876;4.470;2023-07-16T05:32:37;24.70;99.90
19928;DHT22;10126;50.876;4.470;2023-07-16T05:34:37;25.60;99.90
19928;DHT22;10126;50.876;4.470;2023-07-16T05:36:39;26.00;99.90
19928;DHT22;10126;50.876;4.470;2023-07-16T05:38:39;25.80;99.90
19928;DHT22;10126;50.876;4.470;2023-07-16T05:40:40;25.80;99.90
19928;DHT22;10126;50.876;4.470;2023-07-16T05:42:41;25.30;99.90
19928;DHT22;10126;50.876;4.470;2023-07-16T05:44:41;24.80;99.90
19928;DHT22;10126;50.876;4.470;2023-07-16T05:46:43;24.70;99.90
19928;DHT22;10126;50.876;4.470;2023-07-16T05:48:43;24.80;99.90
19928;DHT22;10126;50.876;4.470;2023-07-16T05:50:44;25.30;99.90
19928;DHT22;10126;50.876;4.470;2023-07-16T05:52:45;25.60;99.90
19928;DHT22;10126;50.876;4.470;2023-07-16T05:54:48;25.70;99.90
19928;DHT22;10126;50.876;4.470;2023-07-16T05:56:49;25.40;99.90
19928;DHT22;10126;50.876;4.470;2023-07-16T05:58:49;25.70;99.90
19928;DHT22;10126;50.876;4.470;2023-07-16T06:00:50;25.90;99.90
19928;DHT22;10126;50.876;4.470;2023-07-16T06:02:51;25.20;99.90
19928;DHT22;10126;50.876;4.470;2023-07-16T06:04:52;25.70;99.90
19928;DHT22;10126;50.876;4.470;2023-07-16T06:06:53;26.10;99.90
19928;DHT22;10126;50.876;4.470;2023-07-16T06:08:53;26.30;99.90
19928;DHT22;10126;50.876;4.470;2023-07-16T06:10:54;26.70;99.90
19928;DHT22;10126;50.876;4.470;2023-07-16T06:12:55;27.00;99.90
19928;DHT22;10126;50.876;4.470;2023-07-16T06:14:56;27.70;99.90
19928;DHT22;10126;50.876;4.470;2023-07-16T06:16:56;27.50;99.90
19928;DHT22;10126;50.876;4.470;2023-07-16T06:18:57;26.50;99.90
19928;DHT22;10126;50.876;4.470;2023-07-16T06:20:58;26.60;99.90
19928;DHT22;10126;50.876;4.470;2023-07-16T06:22:58;26.20;99.90
19928;DHT22;10126;50.876;4.470;2023-07-16T06:24:59;26.50;99.90
19928;DHT22;10126;50.876;4.470;2023-07-16T06:27:00;27.70;99.90
19928;DHT22;10126;50.876;4.470;2023-07-16T06:29:00;27.70;99.90
19928;DHT22;10126;50.876;4.470;2023-07-16T06:31:04;28.30;99.90
19928;DHT22;10126;50.876;4.470;2023-07-16T06:33:05;28.00;99.90
19928;DHT22;10126;50.876;4.470;2023-07-16T06:35:05;28.70;99.90
19928;DHT22;10126;50.876;4.470;2023-07-16T06:37:06;28.60;99.90
19928;DHT22;10126;50.876;4.470;2023-07-16T06:39:10;28.70;99.90
19928;DHT22;10126;50.876;4.470;2023-07-16T06:41:10;29.50;99.90
19928;DHT22;10126;50.876;4.470;2023-07-16T06:43:11;29.90;99.90
19928;DHT22;10126;50.876;4.470;2023-07-16T06:45:12;30.10;99.90
19928;DHT22;10126;50.876;4.470;2023-07-16T06:47:12;29.90;99.90
19928;DHT22;10126;50.876;4.470;2023-07-16T06:49:13;29.10;99.90
19928;DHT22;10126;50.876;4.470;2023-07-16T06:51:14;29.40;99.90
19928;DHT22;10126;50.876;4.470;2023-07-16T06:53:14;29.30;99.90
19928;DHT22;10126;50.876;4.470;2023-07-16T06:55:15;28.50;99.90
19928;DHT22;10126;50.876;4.470;2023-07-16T06:57:16;29.40;99.90
19928;DHT22;10126;50.876;4.470;2023-07-16T06:59:16;30.30;99.90
19928;DHT22;10126;50.876;4.470;2023-07-16T07:01:17;30.50;99.80
19928;DHT22;10126;50.876;4.470;2023-07-16T07:03:18;29.60;99.90
19928;DHT22;10126;50.876;4.470;2023-07-16T07:05:20;29.60;99.60
19928;DHT22;10126;50.876;4.470;2023-07-16T07:07:20;29.90;99.90
19928;DHT22;10126;50.876;4.470;2023-07-16T07:09:21;30.60;98.70
19928;DHT22;10126;50.876;4.470;2023-07-16T07:11:22;30.20;98.70
19928;DHT22;10126;50.876;4.470;2023-07-16T07:13:23;29.20;99.20
19928;DHT22;10126;50.876;4.470;2023-07-16T07:15:24;28.90;99.50
19928;DHT22;10126;50.876;4.470;2023-07-16T07:17:24;28.90;99.70
19928;DHT22;10126;50.876;4.470;2023-07-16T07:19:26;29.00;99.90
19928;DHT22;10126;50.876;4.470;2023-07-16T07:21:27;29.70;99.10
19928;DHT22;10126;50.876;4.470;2023-07-16T07:23:27;30.00;99.90
19928;DHT22;10126;50.876;4.470;2023-07-16T07:25:29;30.00;98.70
19928;DHT22;10126;50.876;4.470;2023-07-16T07:27:29;30.10;99.00
19928;DHT22;10126;50.876;4.470;2023-07-16T07:29:30;29.70;98.50
19928;DHT22;10126;50.876;4.470;2023-07-16T07:31:30;28.80;99.90
19928;DHT22;10126;50.876;4.470;2023-07-16T07:33:31;29.20;99.90
19928;DHT22;10126;50.876;4.470;2023-07-16T07:35:32;28.70;99.90
19928;DHT22;10126;50.876;4.470;2023-07-16T07:37:33;29.10;99.80
19928;DHT22;10126;50.876;4.470;2023-07-16T07:39:34;29.60;99.80
19928;DHT22;10126;50.876;4.470;2023-07-16T07:41:34;30.60;98.40
19928;DHT22;10126;50.876;4.470;2023-07-16T07:43:35;30.20;98.10
19928;DHT22;10126;50.876;4.470;2023-07-16T07:45:36;30.30;98.10
19928;DHT22;10126;50.876;4.470;2023-07-16T07:47:39;30.00;98.50
19928;DHT22;10126;50.876;4.470;2023-07-16T07:49:40;30.10;98.80
19928;DHT22;10126;50.876;4.470;2023-07-16T07:51:40;31.20;97.60
19928;DHT22;10126;50.876;4.470;2023-07-16T07:53:41;31.80;96.90
19928;DHT22;10126;50.876;4.470;2023-07-16T07:55:41;31.20;96.20
19928;DHT22;10126;50.876;4.470;2023-07-16T07:57:42;29.80;97.40
19928;DHT22;10126;50.876;4.470;2023-07-16T07:59:43;30.00;97.60
19928;DHT22;10126;50.876;4.470;2023-07-16T08:01:43;30.40;97.80
19928;DHT22;10126;50.876;4.470;2023-07-16T08:03:44;31.10;96.60
19928;DHT22;10126;50.876;4.470;2023-07-16T08:05:48;31.00;96.50
19928;DHT22;10126;50.876;4.470;2023-07-16T08:07:49;30.10;96.30
19928;DHT22;10126;50.876;4.470;2023-07-16T08:09:50;29.90;97.70
19928;DHT22;10126;50.876;4.470;2023-07-16T08:11:50;29.80;97.10
19928;DHT22;10126;50.876;4.470;2023-07-16T08:13:51;29.20;98.00
19928;DHT22;10126;50.876;4.470;2023-07-16T08:15:52;29.20;99.00
19928;DHT22;10126;50.876;4.470;2023-07-16T08:17:52;29.50;97.40
19928;DHT22;10126;50.876;4.470;2023-07-16T08:19:54;29.90;97.80
19928;DHT22;10126;50.876;4.470;2023-07-16T08:21:55;30.10;97.20
19928;DHT22;10126;50.876;4.470;2023-07-16T08:23:56;29.90;96.50
19928;DHT22;10126;50.876;4.470;2023-07-16T08:25:57;30.60;96.90
19928;DHT22;10126;50.876;4.470;2023-07-16T08:27:58;30.80;95.90
19928;DHT22;10126;50.876;4.470;2023-07-16T08:29:58;31.50;96.00
19928;DHT22;10126;50.876;4.470;2023-07-16T08:31:59;32.50;94.60
19928;DHT22;10126;50.876;4.470;2023-07-16T08:34:00;31.70;93.70
19928;DHT22;10126;50.876;4.470;2023-07-16T08:36:01;30.40;96.40
19928;DHT22;10126;50.876;4.470;2023-07-16T08:38:01;31.20;95.60
19928;DHT22;10126;50.876;4.470;2023-07-16T08:40:02;32.30;94.70
19928;DHT22;10126;50.876;4.470;2023-07-16T08:42:04;33.20;93.80
19928;DHT22;10126;50.876;4.470;2023-07-16T08:44:05;33.70;92.00
19928;DHT22;10126;50.876;4.470;2023-07-16T08:46:06;33.00;91.80
19928;DHT22;10126;50.876;4.470;2023-07-16T08:48:07;31.50;92.60
19928;DHT22;10126;50.876;4.470;2023-07-16T08:50:09;31.40;93.30
19928;DHT22;10126;50.876;4.470;2023-07-16T08:52:11;30.00;94.60
19928;DHT22;10126;50.876;4.470;2023-07-16T08:54:13;29.00;95.70
19928;DHT22;10126;50.876;4.470;2023-07-16T08:56:16;28.00;96.80
19928;DHT22;10126;50.876;4.470;2023-07-16T08:58:17;27.00;98.80
19928;DHT22;10126;50.876;4.470;2023-07-16T09:00:18;25.90;99.90
19928;DHT22;10126;50.876;4.470;2023-07-16T09:02:20;25.40;99.90
19928;DHT22;10126;50.876;4.470;2023-07-16T09:04:21;25.10;99.90
19928;DHT22;10126;50.876;4.470;2023-07-16T09:06:22;24.60;99.90
19928;DHT22;10126;50.876;4.470;2023-07-16T09:08:22;24.10;99.90
19928;DHT22;10126;50.876;4.470;2023-07-16T09:10:29;24.00;99.90
19928;DHT22;10126;50.876;4.470;2023-07-16T09:12:30;23.50;99.90
19928;DHT22;10126;50.876;4.470;2023-07-16T09:14:31;23.40;99.90
19928;DHT22;10126;50.876;4.470;2023-07-16T09:16:34;23.60;99.90
19928;DHT22;10126;50.876;4.470;2023-07-16T09:18:35;24.10;99.90
19928;DHT22;10126;50.876;4.470;2023-07-16T09:20:35;25.50;99.90
19928;DHT22;10126;50.876;4.470;2023-07-16T09:22:36;26.80;99.90
19928;DHT22;10126;50.876;4.470;2023-07-16T09:24:38;26.60;99.90
19928;DHT22;10126;50.876;4.470;2023-07-16T09:26:47;26.00;99.90
19928;DHT22;10126;50.876;4.470;2023-07-16T09:28:48;25.10;99.90
19928;DHT22;10126;50.876;4.470;2023-07-16T09:30:50;24.80;99.90
19928;DHT22;10126;50.876;4.470;2023-07-16T09:32:51;24.50;99.90
19928;DHT22;10126;50.876;4.470;2023-07-16T09:34:52;24.50;99.90
19928;DHT22;10126;50.876;4.470;2023-07-16T09:36:55;24.40;99.90
19928;DHT22;10126;50.876;4.470;2023-07-16T09:38:57;24.20;99.90
19928;DHT22;10126;50.876;4.470;2023-07-16T09:40:59;24.20;99.90
19928;DHT22;10126;50.876;4.470;2023-07-16T09:43:00;24.30;99.90
19928;DHT22;10126;50.876;4.470;2023-07-16T09:45:02;24.50;99.90
19928;DHT22;10126;50.876;4.470;2023-07-16T09:47:03;24.50;99.90
19928;DHT22;10126;50.876;4.470;2023-07-16T09:49:04;24.00;99.90
19928;DHT22;10126;50.876;4.470;2023-07-16T09:51:07;24.00;99.90
19928;DHT22;10126;50.876;4.470;2023-07-16T09:53:15;24.00;99.90
19928;DHT22;10126;50.876;4.470;2023-07-16T09:55:18;24.30;99.90
19928;DHT22;10126;50.876;4.470;2023-07-16T09:57:23;25.20;99.90
19928;DHT22;10126;50.876;4.470;2023-07-16T09:59:28;26.00;99.90
19928;DHT22;10126;50.876;4.470;2023-07-16T10:01:29;25.90;99.90
19928;DHT22;10126;50.876;4.470;2023-07-16T10:03:30;25.50;99.90
19928;DHT22;10126;50.876;4.470;2023-07-16T10:05:30;25.40;99.90
19928;DHT22;10126;50.876;4.470;2023-07-16T10:07:32;25.00;99.90
19928;DHT22;10126;50.876;4.470;2023-07-16T10:09:50;24.20;99.90
19928;DHT22;10126;50.876;4.470;2023-07-16T10:11:51;24.20;99.90
19928;DHT22;10126;50.876;4.470;2023-07-16T10:13:51;24.00;99.90
19928;DHT22;10126;50.876;4.470;2023-07-16T10:15:57;23.90;99.90
19928;DHT22;10126;50.876;4.470;2023-07-16T10:17:58;23.90;99.90
19928;DHT22;10126;50.876;4.470;2023-07-16T10:20:00;23.60;99.90
19928;DHT22;10126;50.876;4.470;2023-07-16T10:22:01;23.50;99.90
19928;DHT22;10126;50.876;4.470;2023-07-16T10:24:02;23.20;99.90
19928;DHT22;10126;50.876;4.470;2023-07-16T10:26:08;23.30;99.90
19928;DHT22;10126;50.876;4.470;2023-07-16T10:28:11;23.20;99.90
19928;DHT22;10126;50.876;4.470;2023-07-16T10:30:14;22.90;99.90
19928;DHT22;10126;50.876;4.470;2023-07-16T10:32:15;22.50;99.90
19928;DHT22;10126;50.876;4.470;2023-07-16T10:34:16;22.40;99.90
19928;DHT22;10126;50.876;4.470;2023-07-16T10:36:18;22.80;99.90
19928;DHT22;10126;50.876;4.470;2023-07-16T10:38:20;22.90;99.90
19928;DHT22;10126;50.876;4.470;2023-07-16T10:40:21;22.90;99.90
19928;DHT22;10126;50.876;4.470;2023-07-16T10:42:23;22.90;99.90
19928;DHT22;10126;50.876;4.470;2023-07-16T10:44:27;22.90;99.90
19928;DHT22;10126;50.876;4.470;2023-07-16T10:46:28;22.90;99.90
19928;DHT22;10126;50.876;4.470;2023-07-16T10:48:29;22.90;99.90
19928;DHT22;10126;50.876;4.470;2023-07-16T10:50:33;22.70;99.90
19928;DHT22;10126;50.876;4.470;2023-07-16T10:52:35;22.50;99.90
19928;DHT22;10126;50.876;4.470;2023-07-16T10:54:36;22.30;99.90
19928;DHT22;10126;50.876;4.470;2023-07-16T10:56:37;22.20;99.90
19928;DHT22;10126;50.876;4.470;2023-07-16T10:58:38;22.60;99.90
19928;DHT22;10126;50.876;4.470;2023-07-16T11:00:41;23.10;99.90
19928;DHT22;10126;50.876;4.470;2023-07-16T11:02:42;23.60;99.90
19928;DHT22;10126;50.876;4.470;2023-07-16T11:04:47;23.90;99.90
19928;DHT22;10126;50.876;4.470;2023-07-16T11:06:50;24.00;99.90
19928;DHT22;10126;50.876;4.470;2023-07-16T11:08:51;24.10;99.90
19928;DHT22;10126;50.876;4.470;2023-07-16T11:10:55;24.40;99.90
19928;DHT22;10126;50.876;4.470;2023-07-16T11:12:56;24.30;99.90
19928;DHT22;10126;50.876;4.470;2023-07-16T11:14:59;24.10;99.90
19928;DHT22;10126;50.876;4.470;2023-07-16T11:17:07;23.70;99.90
19928;DHT22;10126;50.876;4.470;2023-07-16T11:19:08;23.80;99.90
19928;DHT22;10126;50.876;4.470;2023-07-16T11:21:09;24.00;99.90
19928;DHT22;10126;50.876;4.470;2023-07-16T11:23:10;23.70;99.90
19928;DHT22;10126;50.876;4.470;2023-07-16T11:25:12;23.20;99.90
19928;DHT22;10126;50.876;4.470;2023-07-16T11:29:15;22.10;99.90
19928;DHT22;10126;50.876;4.470;2023-07-16T11:31:17;21.90;99.90
19928;DHT22;10126;50.876;4.470;2023-07-16T11:33:18;21.70;99.90
19928;DHT22;10126;50.876;4.470;2023-07-16T11:35:19;21.80;99.90
19928;DHT22;10126;50.876;4.470;2023-07-16T11:37:20;21.90;99.90
19928;DHT22;10126;50.876;4.470;2023-07-16T11:39:27;21.80;99.90
19928;DHT22;10126;50.876;4.470;2023-07-16T11:41:28;22.10;99.90
19928;DHT22;10126;50.876;4.470;2023-07-16T11:43:28;22.60;99.90
19928;DHT22;10126;50.876;4.470;2023-07-16T11:45:29;23.10;99.90
19928;DHT22;10126;50.876;4.470;2023-07-16T11:47:30;23.20;99.90
19928;DHT22;10126;50.876;4.470;2023-07-16T11:49:31;23.60;99.90
19928;DHT22;10126;50.876;4.470;2023-07-16T11:51:32;23.60;99.90
19928;DHT22;10126;50.876;4.470;2023-07-16T11:53:32;23.40;99.90
19928;DHT22;10126;50.876;4.470;2023-07-16T11:55:33;23.20;99.90
19928;DHT22;10126;50.876;4.470;2023-07-16T11:57:34;22.90;99.90
19928;DHT22;10126;50.876;4.470;2023-07-16T11:59:35;23.00;99.90
19928;DHT22;10126;50.876;4.470;2023-07-16T12:01:36;23.10;99.90
19928;DHT22;10126;50.876;4.470;2023-07-16T12:03:36;23.40;99.90
19928;DHT22;10126;50.876;4.470;2023-07-16T12:05:37;23.50;99.90
19928;DHT22;10126;50.876;4.470;2023-07-16T12:07:38;23.70;99.90
19928;DHT22;10126;50.876;4.470;2023-07-16T12:09:39;23.70;99.90
19928;DHT22;10126;50.876;4.470;2023-07-16T12:11:40;23.90;99.90
19928;DHT22;10126;50.876;4.470;2023-07-16T12:13:40;24.20;99.90
19928;DHT22;10126;50.876;4.470;2023-07-16T12:15:41;24.00;99.90
19928;DHT22;10126;50.876;4.470;2023-07-16T12:17:41;24.10;99.90
19928;DHT22;10126;50.876;4.470;2023-07-16T12:19:42;24.30;99.90
19928;DHT22;10126;50.876;4.470;2023-07-16T12:21:43;24.50;99.90
19928;DHT22;10126;50.876;4.470;2023-07-16T12:23:44;24.80;99.90
19928;DHT22;10126;50.876;4.470;2023-07-16T12:25:44;25.10;99.90
19928;DHT22;10126;50.876;4.470;2023-07-16T12:27:45;25.40;99.90
19928;DHT22;10126;50.876;4.470;2023-07-16T12:29:46;25.50;99.90
19928;DHT22;10126;50.876;4.470;2023-07-16T12:31:46;25.60;99.90
19928;DHT22;10126;50.876;4.470;2023-07-16T12:33:47;25.60;99.90
19928;DHT22;10126;50.876;4.470;2023-07-16T12:35:48;25.60;99.90
19928;DHT22;10126;50.876;4.470;2023-07-16T12:37:48;25.90;99.90
19928;DHT22;10126;50.876;4.470;2023-07-16T12:39:49;25.70;99.90
19928;DHT22;10126;50.876;4.470;2023-07-16T12:41:50;25.70;99.90
19928;DHT22;10126;50.876;4.470;2023-07-16T12:43:50;25.30;99.90
19928;DHT22;10126;50.876;4.470;2023-07-16T12:45:51;25.30;99.90
19928;DHT22;10126;50.876;4.470;2023-07-16T12:47:52;25.00;99.90
19928;DHT22;10126;50.876;4.470;2023-07-16T12:49:52;24.70;99.90
19928;DHT22;10126;50.876;4.470;2023-07-16T12:51:53;24.70;99.90
19928;DHT22;10126;50.876;4.470;2023-07-16T12:53:54;24.80;99.90
19928;DHT22;10126;50.876;4.470;2023-07-16T12:55:54;24.80;99.90
19928;DHT22;10126;50.876;4.470;2023-07-16T12:57:55;24.80;99.90